createdAt,value
2016-09-17T00:00:18.148Z,1002.52
2016-09-17T00:01:18.531Z,1002.55
2016-09-17T00:02:17.907Z,1002.55
2016-09-17T00:03:17.712Z,1002.57
2016-09-17T00:04:17.991Z,1002.61
2016-09-17T00:05:17.807Z,1002.64
2016-09-17T00:06:18.488Z,1002.62
2016-09-17T00:07:17.921Z,1002.64
2016-09-17T00:08:18.104Z,1002.64
2016-09-17T00:09:18.095Z,1002.62
2016-09-17T00:10:17.982Z,1002.58
2016-09-17T00:11:18.130Z,1002.55
2016-09-17T00:12:17.961Z,1002.6
2016-09-17T00:13:18.473Z,1002.55
2016-09-17T00:14:18.748Z,1002.56
2016-09-17T00:15:18.048Z,1002.54
2016-09-17T00:16:19.171Z,1002.57
2016-09-17T00:17:18.308Z,1002.58
2016-09-17T00:18:18.774Z,1002.64
2016-09-17T00:19:19.525Z,1002.65
2016-09-17T00:20:19.025Z,1002.67
2016-09-17T00:21:19.104Z,1002.67
2016-09-17T00:22:18.593Z,1002.65
2016-09-17T00:23:18.370Z,1002.67
2016-09-17T00:24:19.208Z,1002.64
2016-09-17T00:25:18.818Z,1002.61
2016-09-17T00:26:18.703Z,1002.63
2016-09-17T00:27:18.900Z,1002.64
2016-09-17T00:28:18.315Z,1002.63
2016-09-17T00:29:18.744Z,1002.66
2016-09-17T00:30:19.061Z,1002.66
2016-09-17T00:31:19.238Z,1002.74
2016-09-17T00:32:19.884Z,1002.68
2016-09-17T00:33:18.732Z,1002.69
2016-09-17T00:34:18.849Z,1002.7
2016-09-17T00:35:18.803Z,1002.71
2016-09-17T00:36:19.160Z,1002.72
2016-09-17T00:37:19.197Z,1002.74
2016-09-17T00:38:18.869Z,1002.76
2016-09-17T00:39:19.122Z,1002.73
2016-09-17T00:40:19.578Z,1002.74
2016-09-17T00:41:18.954Z,1002.72
2016-09-17T00:42:19.200Z,1002.72
2016-09-17T00:43:18.829Z,1002.73
2016-09-17T00:44:19.152Z,1002.75
2016-09-17T00:45:18.732Z,1002.77
2016-09-17T00:46:19.220Z,1002.8
2016-09-17T00:47:19.134Z,1002.79
2016-09-17T00:48:19.226Z,1002.81
2016-09-17T00:49:19.244Z,1002.84
2016-09-17T00:50:19.704Z,1002.77
2016-09-17T00:51:19.157Z,1002.8
2016-09-17T00:52:19.114Z,1002.78
2016-09-17T00:53:19.778Z,1002.79
2016-09-17T00:54:19.637Z,1002.8
2016-09-17T00:55:18.946Z,1002.82
2016-09-17T00:56:19.396Z,1002.83
2016-09-17T00:57:19.454Z,1002.81
2016-09-17T00:58:19.137Z,1002.85
2016-09-17T00:59:19.401Z,1002.85
2016-09-17T01:00:18.981Z,1002.87
2016-09-17T01:01:19.369Z,1002.88
2016-09-17T01:02:18.910Z,1002.84
2016-09-17T01:03:20.004Z,1002.85
2016-09-17T01:04:19.663Z,1002.86
2016-09-17T01:05:19.280Z,1002.89
2016-09-17T01:06:19.118Z,1002.9
2016-09-17T01:07:19.513Z,1002.91
2016-09-17T01:08:20.189Z,1002.93
2016-09-17T01:09:19.631Z,1002.91
2016-09-17T01:10:19.761Z,1002.89
2016-09-17T01:11:19.551Z,1002.92
2016-09-17T01:12:19.829Z,1002.89
2016-09-17T01:13:19.321Z,1002.91
2016-09-17T01:14:19.197Z,1002.88
2016-09-17T01:15:19.795Z,1002.93
2016-09-17T01:16:19.633Z,1002.93
2016-09-17T01:17:19.533Z,1002.96
2016-09-17T01:18:19.534Z,1002.98
2016-09-17T01:19:19.460Z,1002.98
2016-09-17T01:20:19.762Z,1003
2016-09-17T01:21:20.595Z,1002.98
2016-09-17T01:22:19.871Z,1003
2016-09-17T01:23:20.376Z,1002.99
2016-09-17T01:24:19.596Z,1002.98
2016-09-17T01:25:19.914Z,1002.97
2016-09-17T01:26:19.624Z,1002.99
2016-09-17T01:27:19.894Z,1002.96
2016-09-17T01:28:20.231Z,1002.98
2016-09-17T01:29:20.210Z,1003
2016-09-17T01:30:19.879Z,1002.99
2016-09-17T01:31:19.738Z,1003.01
2016-09-17T01:32:19.942Z,1003.02
2016-09-17T01:33:20.127Z,1002.99
2016-09-17T01:34:20.207Z,1002.98
2016-09-17T01:35:20.718Z,1002.99
2016-09-17T01:36:19.739Z,1003.01
2016-09-17T01:37:20.144Z,1002.98
2016-09-17T01:38:20.663Z,1002.98
2016-09-17T01:39:19.788Z,1002.97
2016-09-17T01:40:19.832Z,1002.98
2016-09-17T01:41:19.954Z,1002.96
2016-09-17T01:42:19.917Z,1002.95
2016-09-17T01:43:20.143Z,1002.96
2016-09-17T01:44:19.906Z,1002.97
2016-09-17T01:45:20.167Z,1002.94
2016-09-17T01:46:20.219Z,1002.94
2016-09-17T01:47:20.235Z,1002.9
2016-09-17T01:48:19.867Z,1002.96
2016-09-17T01:49:20.437Z,1002.98
2016-09-17T01:50:20.144Z,1002.94
2016-09-17T01:51:20.121Z,1002.96
2016-09-17T01:52:20.548Z,1003
2016-09-17T01:53:21.513Z,1002.97
2016-09-17T01:54:20.545Z,1002.96
2016-09-17T01:55:20.562Z,1002.95
2016-09-17T01:56:20.244Z,1002.96
2016-09-17T01:57:20.389Z,1002.97
2016-09-17T01:58:20.215Z,1002.95
2016-09-17T01:59:20.313Z,1002.98
2016-09-17T02:00:20.554Z,1002.94
2016-09-17T02:01:20.914Z,1002.95
2016-09-17T02:02:20.374Z,1002.92
2016-09-17T02:03:20.921Z,1002.97
2016-09-17T02:04:20.320Z,1002.96
2016-09-17T02:05:20.303Z,1002.97
2016-09-17T02:06:21.370Z,1002.96
2016-09-17T02:07:20.298Z,1002.96
2016-09-17T02:08:21.314Z,1002.97
2016-09-17T02:09:20.349Z,1002.99
2016-09-17T02:10:20.748Z,1002.99
2016-09-17T02:11:20.330Z,1003
2016-09-17T02:12:20.388Z,1003
2016-09-17T02:13:20.412Z,1003
2016-09-17T02:14:21.210Z,1002.97
2016-09-17T02:15:20.505Z,1002.97
2016-09-17T02:16:20.522Z,1002.99
2016-09-17T02:17:20.469Z,1003.03
2016-09-17T02:18:21.108Z,1003.02
2016-09-17T02:19:20.541Z,1003.05
2016-09-17T02:20:20.870Z,1003.03
2016-09-17T02:21:20.721Z,1003.05
2016-09-17T02:22:21.114Z,1003.06
2016-09-17T02:23:20.705Z,1003.06
2016-09-17T02:24:21.336Z,1003.07
2016-09-17T02:25:20.708Z,1003.02
2016-09-17T02:26:21.483Z,1002.99
2016-09-17T02:27:20.703Z,1003.01
2016-09-17T02:28:21.008Z,1003.01
2016-09-17T02:29:21.161Z,1003.03
2016-09-17T02:30:21.646Z,1003.01
2016-09-17T02:31:21.110Z,1002.99
2016-09-17T02:32:21.376Z,1002.99
2016-09-17T02:33:21.013Z,1003
2016-09-17T02:34:21.048Z,1002.98
2016-09-17T02:35:20.959Z,1002.95
2016-09-17T02:36:21.178Z,1002.96
2016-09-17T02:37:21.095Z,1002.98
2016-09-17T02:38:21.237Z,1002.98
2016-09-17T02:39:21.037Z,1002.96
2016-09-17T02:40:21.013Z,1002.98
2016-09-17T02:41:21.320Z,1002.94
2016-09-17T02:42:21.193Z,1002.99
2016-09-17T02:43:21.257Z,1002.98
2016-09-17T02:44:21.232Z,1002.97
2016-09-17T02:45:21.351Z,1002.94
2016-09-17T02:46:22.082Z,1002.98
2016-09-17T02:47:21.117Z,1002.97
2016-09-17T02:48:21.248Z,1002.97
2016-09-17T02:49:21.113Z,1002.95
2016-09-17T02:50:21.408Z,1003
2016-09-17T02:51:21.250Z,1002.95
2016-09-17T02:52:21.600Z,1002.99
2016-09-17T02:53:21.080Z,1002.95
2016-09-17T02:54:21.473Z,1002.96
2016-09-17T02:55:21.472Z,1002.94
2016-09-17T02:56:21.181Z,1002.92
2016-09-17T02:57:21.969Z,1002.93
2016-09-17T02:58:22.142Z,1002.9
2016-09-17T02:59:21.527Z,1002.91
2016-09-17T03:00:21.439Z,1002.93
2016-09-17T03:01:21.445Z,1002.91
2016-09-17T03:02:22.223Z,1002.89
2016-09-17T03:03:22.094Z,1002.85
2016-09-17T03:04:23.502Z,1002.87
2016-09-17T03:05:21.485Z,1002.87
2016-09-17T03:06:21.972Z,1002.87
2016-09-17T03:07:21.859Z,1002.86
2016-09-17T03:08:21.667Z,1002.82
2016-09-17T03:09:21.559Z,1002.83
2016-09-17T03:10:21.970Z,1002.82
2016-09-17T03:11:21.712Z,1002.84
2016-09-17T03:12:22.324Z,1002.78
2016-09-17T03:13:22.920Z,1002.83
2016-09-17T03:14:21.773Z,1002.81
2016-09-17T03:15:22.769Z,1002.83
2016-09-17T03:16:22.097Z,1002.84
2016-09-17T03:17:23.073Z,1002.83
2016-09-17T03:18:22.224Z,1002.83
2016-09-17T03:19:22.122Z,1002.83
2016-09-17T03:20:22.036Z,1002.82
2016-09-17T03:21:22.141Z,1002.84
2016-09-17T03:22:21.783Z,1002.84
2016-09-17T03:23:22.427Z,1002.79
2016-09-17T03:24:22.144Z,1002.87
2016-09-17T03:25:22.783Z,1002.82
2016-09-17T03:26:21.848Z,1002.78
2016-09-17T03:27:21.915Z,1002.81
2016-09-17T03:28:22.301Z,1002.83
2016-09-17T03:29:22.610Z,1002.83
2016-09-17T03:30:22.827Z,1002.88
2016-09-17T03:31:22.712Z,1002.87
2016-09-17T03:32:22.600Z,1002.89
2016-09-17T03:33:22.339Z,1002.89
2016-09-17T03:34:22.827Z,1002.93
2016-09-17T03:35:22.568Z,1002.9
2016-09-17T03:36:22.495Z,1002.9
2016-09-17T03:37:22.510Z,1002.92
2016-09-17T03:38:22.510Z,1002.92
2016-09-17T03:39:22.383Z,1002.93
2016-09-17T03:40:22.233Z,1002.95
2016-09-17T03:41:22.846Z,1002.93
2016-09-17T03:42:22.209Z,1002.91
2016-09-17T03:43:22.957Z,1002.94
2016-09-17T03:44:22.197Z,1002.9
2016-09-17T03:45:22.919Z,1002.92
2016-09-17T03:46:22.114Z,1002.88
2016-09-17T03:47:22.748Z,1002.91
2016-09-17T03:48:22.683Z,1002.87
2016-09-17T03:49:22.808Z,1002.93
2016-09-17T03:50:22.462Z,1002.92
2016-09-17T03:51:22.938Z,1002.93
2016-09-17T03:52:22.590Z,1002.94
2016-09-17T03:53:22.520Z,1002.94
2016-09-17T03:54:23.011Z,1002.97
2016-09-17T03:55:22.993Z,1002.95
2016-09-17T03:56:23.311Z,1002.96
2016-09-17T03:57:22.944Z,1002.99
2016-09-17T03:58:23.003Z,1002.98
2016-09-17T03:59:23.194Z,1002.99
2016-09-17T04:00:23.488Z,1002.99
2016-09-17T04:01:22.661Z,1003.04
2016-09-17T04:02:23.076Z,1003.03
2016-09-17T04:03:23.541Z,1003.01
2016-09-17T04:04:23.164Z,1002.98
2016-09-17T04:05:22.745Z,1003.01
2016-09-17T04:06:23.278Z,1003.04
2016-09-17T04:07:23.017Z,1003.02
2016-09-17T04:08:23.959Z,1003
2016-09-17T04:09:23.908Z,1003.08
2016-09-17T04:10:22.941Z,1003
2016-09-17T04:11:23.289Z,1003.03
2016-09-17T04:12:23.767Z,1003.02
2016-09-17T04:13:22.848Z,1002.99
2016-09-17T04:14:24.182Z,1002.99
2016-09-17T04:15:22.990Z,1003.01
2016-09-17T04:16:23.809Z,1003.02
2016-09-17T04:17:22.970Z,1002.99
2016-09-17T04:18:23.302Z,1002.99
2016-09-17T04:19:23.662Z,1002.98
2016-09-17T04:20:23.005Z,1003.01
2016-09-17T04:21:23.237Z,1003
2016-09-17T04:22:23.902Z,1002.97
2016-09-17T04:23:23.005Z,1002.97
2016-09-17T04:24:23.194Z,1002.96
2016-09-17T04:25:24.130Z,1002.93
2016-09-17T04:26:24.476Z,1002.94
2016-09-17T04:27:23.264Z,1002.99
2016-09-17T04:28:22.914Z,1002.99
2016-09-17T04:29:23.751Z,1002.96
2016-09-17T04:30:23.177Z,1002.96
2016-09-17T04:31:23.675Z,1002.92
2016-09-17T04:32:23.607Z,1002.88
2016-09-17T04:33:24.384Z,1002.87
2016-09-17T04:34:23.233Z,1002.86
2016-09-17T04:35:23.501Z,1002.84
2016-09-17T04:36:23.651Z,1002.88
2016-09-17T04:37:24.260Z,1002.89
2016-09-17T04:38:23.631Z,1002.89
2016-09-17T04:39:24.340Z,1002.89
2016-09-17T04:40:24.590Z,1002.89
2016-09-17T04:41:25.139Z,1002.92
2016-09-17T04:42:23.502Z,1002.88
2016-09-17T04:43:24.214Z,1002.89
2016-09-17T04:44:23.578Z,1002.94
2016-09-17T04:45:23.962Z,1002.9
2016-09-17T04:46:24.331Z,1002.91
2016-09-17T04:47:24.172Z,1002.92
2016-09-17T04:48:23.932Z,1002.92
2016-09-17T04:49:24.144Z,1002.89
2016-09-17T04:50:23.924Z,1002.84
2016-09-17T04:51:23.886Z,1002.9
2016-09-17T04:52:23.895Z,1002.83
2016-09-17T04:53:24.011Z,1002.84
2016-09-17T04:54:24.392Z,1002.83
2016-09-17T04:55:24.415Z,1002.8
2016-09-17T04:56:24.396Z,1002.81
2016-09-17T04:57:24.531Z,1002.8
2016-09-17T04:58:24.012Z,1002.8
2016-09-17T04:59:24.156Z,1002.79
2016-09-17T05:00:24.416Z,1002.8
2016-09-17T05:01:24.553Z,1002.8
2016-09-17T05:02:24.112Z,1002.78
2016-09-17T05:03:24.029Z,1002.77
2016-09-17T05:04:24.132Z,1002.84
2016-09-17T05:05:24.182Z,1002.81
2016-09-17T05:06:24.253Z,1002.86
2016-09-17T05:07:24.379Z,1002.84
2016-09-17T05:08:24.372Z,1002.85
2016-09-17T05:09:23.934Z,1002.83
2016-09-17T05:10:24.159Z,1002.81
2016-09-17T05:11:24.545Z,1002.8
2016-09-17T05:12:25.171Z,1002.77
2016-09-17T05:13:24.166Z,1002.74
2016-09-17T05:14:24.222Z,1002.76
2016-09-17T05:15:24.408Z,1002.74
2016-09-17T05:16:24.604Z,1002.73
2016-09-17T05:17:24.764Z,1002.7
2016-09-17T05:18:24.538Z,1002.72
2016-09-17T05:19:24.231Z,1002.73
2016-09-17T05:20:24.264Z,1002.73
2016-09-17T05:21:24.165Z,1002.7
2016-09-17T05:22:24.677Z,1002.67
2016-09-17T05:23:24.826Z,1002.69
2016-09-17T05:24:24.487Z,1002.67
2016-09-17T05:25:24.236Z,1002.7
2016-09-17T05:26:24.908Z,1002.71
2016-09-17T05:27:24.373Z,1002.72
2016-09-17T05:28:25.063Z,1002.73
2016-09-17T05:29:24.683Z,1002.76
2016-09-17T05:30:25.110Z,1002.72
2016-09-17T05:31:25.201Z,1002.74
2016-09-17T05:32:25.873Z,1002.72
2016-09-17T05:33:25.146Z,1002.73
2016-09-17T05:34:24.386Z,1002.75
2016-09-17T05:35:24.705Z,1002.76
2016-09-17T05:36:24.396Z,1002.73
2016-09-17T05:37:25.057Z,1002.74
2016-09-17T05:38:25.122Z,1002.73
2016-09-17T05:39:24.514Z,1002.74
2016-09-17T05:40:24.849Z,1002.75
2016-09-17T05:41:25.424Z,1002.77
2016-09-17T05:42:24.570Z,1002.76
2016-09-17T05:43:25.260Z,1002.77
2016-09-17T05:44:24.797Z,1002.75
2016-09-17T05:45:25.665Z,1002.78
2016-09-17T05:46:25.066Z,1002.72
2016-09-17T05:47:25.305Z,1002.77
2016-09-17T05:48:24.940Z,1002.73
2016-09-17T05:49:25.615Z,1002.74
2016-09-17T05:50:24.572Z,1002.74
2016-09-17T05:51:25.057Z,1002.79
2016-09-17T05:52:25.030Z,1002.76
2016-09-17T05:53:25.320Z,1002.75
2016-09-17T05:54:25.972Z,1002.79
2016-09-17T05:55:25.426Z,1002.77
2016-09-17T05:56:25.426Z,1002.75
2016-09-17T05:57:25.403Z,1002.79
2016-09-17T05:58:25.996Z,1002.83
2016-09-17T05:59:25.017Z,1002.84
2016-09-17T06:00:25.157Z,1002.82
2016-09-17T06:01:25.580Z,1002.81
2016-09-17T06:02:26.006Z,1002.78
2016-09-17T06:03:24.963Z,1002.81
2016-09-17T06:04:25.271Z,1002.87
2016-09-17T06:05:25.037Z,1002.83
2016-09-17T06:06:24.977Z,1002.88
2016-09-17T06:07:25.804Z,1002.87
2016-09-17T06:08:25.849Z,1002.87
2016-09-17T06:09:25.102Z,1002.88
2016-09-17T06:10:25.433Z,1002.84
2016-09-17T06:11:25.431Z,1002.87
2016-09-17T06:12:25.256Z,1002.86
2016-09-17T06:13:25.233Z,1002.85
2016-09-17T06:14:25.415Z,1002.88
2016-09-17T06:15:26.164Z,1002.88
2016-09-17T06:16:26.095Z,1002.88
2016-09-17T06:17:26.021Z,1002.92
2016-09-17T06:18:25.618Z,1002.92
2016-09-17T06:19:25.276Z,1002.91
2016-09-17T06:20:25.804Z,1002.93
2016-09-17T06:21:25.752Z,1002.9
2016-09-17T06:22:25.387Z,1002.94
2016-09-17T06:23:25.723Z,1002.95
2016-09-17T06:24:25.541Z,1002.9
2016-09-17T06:25:25.821Z,1002.92
2016-09-17T06:26:25.772Z,1002.95
2016-09-17T06:27:25.655Z,1002.92
2016-09-17T06:28:25.724Z,1002.93
2016-09-17T06:29:25.618Z,1002.94
2016-09-17T06:30:25.874Z,1002.97
2016-09-17T06:31:25.787Z,1002.97
2016-09-17T06:32:25.607Z,1002.98
2016-09-17T06:33:26.366Z,1003
2016-09-17T06:34:25.856Z,1003.04
2016-09-17T06:35:26.798Z,1003.04
2016-09-17T06:36:25.513Z,1003.04
2016-09-17T06:37:25.717Z,1003.09
2016-09-17T06:38:25.752Z,1003.12
2016-09-17T06:39:25.733Z,1003.11
2016-09-17T06:40:25.591Z,1003.1
2016-09-17T06:41:25.797Z,1003.13
2016-09-17T06:42:26.115Z,1003.12
2016-09-17T06:43:26.287Z,1003.11
2016-09-17T06:44:25.834Z,1003.17
2016-09-17T06:45:25.812Z,1003.15
2016-09-17T06:46:26.088Z,1003.17
2016-09-17T06:47:26.355Z,1003.17
2016-09-17T06:48:26.497Z,1003.21
2016-09-17T06:49:26.323Z,1003.21
2016-09-17T06:50:26.506Z,1003.23
2016-09-17T06:51:26.170Z,1003.24
2016-09-17T06:52:26.711Z,1003.25
2016-09-17T06:53:26.493Z,1003.2
2016-09-17T06:54:26.288Z,1003.21
2016-09-17T06:55:26.694Z,1003.2
2016-09-17T06:56:26.311Z,1003.21
2016-09-17T06:57:26.473Z,1003.23
2016-09-17T06:58:26.466Z,1003.24
2016-09-17T06:59:26.380Z,1003.24
2016-09-17T07:00:26.570Z,1003.29
2016-09-17T07:01:26.354Z,1003.35
2016-09-17T07:02:26.151Z,1003.38
2016-09-17T07:03:26.213Z,1003.34
2016-09-17T07:04:26.496Z,1003.36
2016-09-17T07:05:26.604Z,1003.33
2016-09-17T07:06:26.691Z,1003.29
2016-09-17T07:07:26.349Z,1003.31
2016-09-17T07:08:27.189Z,1003.28
2016-09-17T07:09:26.580Z,1003.27
2016-09-17T07:10:26.386Z,1003.27
2016-09-17T07:11:27.154Z,1003.26
2016-09-17T07:12:26.369Z,1003.27
2016-09-17T07:13:26.781Z,1003.33
2016-09-17T07:14:27.134Z,1003.32
2016-09-17T07:15:26.479Z,1003.35
2016-09-17T07:16:26.999Z,1003.34
2016-09-17T07:17:26.810Z,1003.33
2016-09-17T07:18:26.956Z,1003.38
2016-09-17T07:19:26.574Z,1003.35
2016-09-17T07:20:26.932Z,1003.37
2016-09-17T07:21:27.125Z,1003.32
2016-09-17T07:22:27.042Z,1003.34
2016-09-17T07:23:26.727Z,1003.37
2016-09-17T07:24:27.105Z,1003.36
2016-09-17T07:25:26.885Z,1003.32
2016-09-17T07:26:27.006Z,1003.34
2016-09-17T07:27:27.068Z,1003.37
2016-09-17T07:28:27.468Z,1003.41
2016-09-17T07:29:27.100Z,1003.37
2016-09-17T07:30:27.066Z,1003.39
2016-09-17T07:31:27.387Z,1003.34
2016-09-17T07:32:27.340Z,1003.35
2016-09-17T07:33:27.073Z,1003.35
2016-09-17T07:34:27.345Z,1003.36
2016-09-17T07:35:27.218Z,1003.33
2016-09-17T07:36:27.081Z,1003.34
2016-09-17T07:37:26.800Z,1003.36
2016-09-17T07:38:27.148Z,1003.41
2016-09-17T07:39:27.375Z,1003.45
2016-09-17T07:40:27.398Z,1003.45
2016-09-17T07:41:26.947Z,1003.53
2016-09-17T07:42:27.025Z,1003.54
2016-09-17T07:43:27.280Z,1003.56
2016-09-17T07:44:27.104Z,1003.56
2016-09-17T07:45:27.254Z,1003.62
2016-09-17T07:46:27.010Z,1003.62
2016-09-17T07:47:27.290Z,1003.62
2016-09-17T07:48:27.338Z,1003.66
2016-09-17T07:49:27.392Z,1003.67
2016-09-17T07:50:27.396Z,1003.67
2016-09-17T07:51:27.174Z,1003.66
2016-09-17T07:52:27.961Z,1003.68
2016-09-17T07:53:27.531Z,1003.69
2016-09-17T07:54:28.057Z,1003.71
2016-09-17T07:55:27.345Z,1003.68
2016-09-17T07:56:27.257Z,1003.7
2016-09-17T07:57:27.771Z,1003.71
2016-09-17T07:58:27.466Z,1003.73
2016-09-17T07:59:27.833Z,1003.7
2016-09-17T08:00:27.893Z,1003.72
2016-09-17T08:01:27.546Z,1003.74
2016-09-17T08:02:27.452Z,1003.74
2016-09-17T08:03:27.593Z,1003.75
2016-09-17T08:04:27.868Z,1003.77
2016-09-17T08:05:28.301Z,1003.79
2016-09-17T08:07:28.384Z,1003.83
2016-09-17T08:08:28.337Z,1003.86
2016-09-17T08:09:29.502Z,1003.85
2016-09-17T08:10:27.743Z,1003.86
2016-09-17T08:11:28.008Z,1003.89
2016-09-17T08:12:27.894Z,1003.87
2016-09-17T08:13:28.469Z,1003.86
2016-09-17T08:14:27.729Z,1003.87
2016-09-17T08:15:29.573Z,1003.86
2016-09-17T08:16:28.647Z,1003.87
2016-09-17T08:17:28.855Z,1003.93
2016-09-17T08:18:28.138Z,1003.96
2016-09-17T08:19:28.241Z,1003.97
2016-09-17T08:20:27.988Z,1003.96
2016-09-17T08:21:28.104Z,1003.99
2016-09-17T08:22:28.379Z,1004
2016-09-17T08:23:28.359Z,1004.02
2016-09-17T08:24:28.604Z,1004.01
2016-09-17T08:25:28.160Z,1004.04
2016-09-17T08:26:28.199Z,1004
2016-09-17T08:27:28.242Z,1004.02
2016-09-17T08:28:29.144Z,1004.07
2016-09-17T08:29:28.588Z,1004.11
2016-09-17T08:30:28.209Z,1004.09
2016-09-17T08:31:28.298Z,1004.08
2016-09-17T08:32:28.521Z,1004.14
2016-09-17T08:33:28.683Z,1004.12
2016-09-17T08:34:29.119Z,1004.08
2016-09-17T08:35:28.555Z,1004.08
2016-09-17T08:36:28.508Z,1004.09
2016-09-17T08:37:28.793Z,1004.12
2016-09-17T08:38:28.553Z,1004.15
2016-09-17T08:39:28.804Z,1004.1
2016-09-17T08:40:28.669Z,1004.12
2016-09-17T08:41:29.432Z,1004.11
2016-09-17T08:42:28.455Z,1004.09
2016-09-17T08:43:28.738Z,1004.1
2016-09-17T08:44:28.586Z,1004.1
2016-09-17T08:45:28.859Z,1004.08
2016-09-17T08:46:28.737Z,1004.09
2016-09-17T08:47:31.576Z,1004.09
2016-09-17T08:48:29.096Z,1004.12
2016-09-17T08:49:28.776Z,1004.1
2016-09-17T08:50:29.609Z,1004.1
2016-09-17T08:51:28.639Z,1004.08
2016-09-17T08:52:28.957Z,1004.09
2016-09-17T08:53:28.820Z,1004.1
2016-09-17T08:54:29.291Z,1004.11
2016-09-17T08:55:28.893Z,1004.14
2016-09-17T08:56:30.031Z,1004.14
2016-09-17T08:57:29.179Z,1004.15
2016-09-17T08:58:29.301Z,1004.14
2016-09-17T08:59:28.758Z,1004.11
2016-09-17T09:00:28.878Z,1004.15
2016-09-17T09:01:29.281Z,1004.08
2016-09-17T09:02:29.284Z,1004.13
2016-09-17T09:03:29.713Z,1004.09
2016-09-17T09:04:29.168Z,1004.07
2016-09-17T09:05:29.101Z,1004.1
2016-09-17T09:06:28.773Z,1004.09
2016-09-17T09:07:29.377Z,1004.07
2016-09-17T09:08:29.137Z,1004.07
2016-09-17T09:09:28.991Z,1004.1
2016-09-17T09:10:29.145Z,1004.11
2016-09-17T09:11:29.720Z,1004.1
2016-09-17T09:12:29.893Z,1004.08
2016-09-17T09:13:30.179Z,1004.1
2016-09-17T09:14:29.873Z,1004.08
2016-09-17T09:15:30.425Z,1004.1
2016-09-17T09:16:30.099Z,1004.11
2016-09-17T09:17:29.103Z,1004.09
2016-09-17T09:18:29.870Z,1004.09
2016-09-17T09:19:29.907Z,1004.1
2016-09-17T09:20:29.309Z,1004.08
2016-09-17T09:21:30.026Z,1004.11
2016-09-17T09:22:29.621Z,1004.13
2016-09-17T09:23:30.340Z,1004.11
2016-09-17T09:24:29.807Z,1004.18
2016-09-17T09:25:30.201Z,1004.17
2016-09-17T09:26:30.050Z,1004.16
2016-09-17T09:27:29.601Z,1004.2
2016-09-17T09:28:29.919Z,1004.14
2016-09-17T09:29:30.464Z,1004.14
2016-09-17T09:30:30.156Z,1004.17
2016-09-17T09:31:29.946Z,1004.19
2016-09-17T09:32:30.045Z,1004.18
2016-09-17T09:33:30.539Z,1004.16
2016-09-17T09:34:30.474Z,1004.19
2016-09-17T09:35:30.475Z,1004.15
2016-09-17T09:36:29.907Z,1004.2
2016-09-17T09:37:29.903Z,1004.18
2016-09-17T09:38:29.814Z,1004.19
2016-09-17T09:39:30.571Z,1004.2
2016-09-17T09:40:30.758Z,1004.21
2016-09-17T09:41:30.774Z,1004.2
2016-09-17T09:42:31.726Z,1004.22
2016-09-17T09:43:30.270Z,1004.17
2016-09-17T09:44:30.956Z,1004.18
2016-09-17T09:45:30.279Z,1004.21
2016-09-17T09:46:30.680Z,1004.25
2016-09-17T09:47:30.783Z,1004.22
2016-09-17T09:48:30.368Z,1004.19
2016-09-17T09:49:30.648Z,1004.15
2016-09-17T09:50:30.336Z,1004.17
2016-09-17T09:51:30.528Z,1004.2
2016-09-17T09:52:30.560Z,1004.19
2016-09-17T09:53:30.320Z,1004.15
2016-09-17T09:54:30.767Z,1004.12
2016-09-17T09:55:30.265Z,1004.15
2016-09-17T09:56:30.100Z,1004.14
2016-09-17T09:57:30.291Z,1004.16
2016-09-17T09:58:30.074Z,1004.15
2016-09-17T09:59:30.533Z,1004.16
2016-09-17T10:00:30.287Z,1004.18
2016-09-17T10:01:30.901Z,1004.21
2016-09-17T10:02:30.313Z,1004.23
2016-09-17T10:03:30.620Z,1004.28
2016-09-17T10:04:31.219Z,1004.27
2016-09-17T10:05:30.392Z,1004.24
2016-09-17T10:06:30.725Z,1004.22
2016-09-17T10:07:30.722Z,1004.24
2016-09-17T10:08:31.754Z,1004.26
2016-09-17T10:09:30.479Z,1004.26
2016-09-17T10:10:31.088Z,1004.23
2016-09-17T10:11:30.767Z,1004.35
2016-09-17T10:12:30.927Z,1004.35
2016-09-17T10:13:30.989Z,1004.33
2016-09-17T10:14:30.615Z,1004.3
2016-09-17T10:15:32.032Z,1004.29
2016-09-17T10:16:30.602Z,1004.31
2016-09-17T10:17:30.832Z,1004.28
2016-09-17T10:18:31.184Z,1004.29
2016-09-17T10:19:30.652Z,1004.27
2016-09-17T10:20:31.555Z,1004.29
2016-09-17T10:21:31.106Z,1004.34
2016-09-17T10:22:31.749Z,1004.32
2016-09-17T10:23:31.833Z,1004.29
2016-09-17T10:24:30.999Z,1004.34
2016-09-17T10:25:31.004Z,1004.36
2016-09-17T10:26:31.226Z,1004.32
2016-09-17T10:27:30.868Z,1004.22
2016-09-17T10:28:31.210Z,1004.23
2016-09-17T10:29:31.312Z,1004.29
2016-09-17T10:30:31.278Z,1004.2
2016-09-17T10:31:30.651Z,1004.19
2016-09-17T10:32:32.345Z,1004.2
2016-09-17T10:33:31.271Z,1004.17
2016-09-17T10:34:31.998Z,1004.15
2016-09-17T10:35:31.216Z,1004.15
2016-09-17T10:36:32.249Z,1004.18
2016-09-17T10:37:31.165Z,1004.19
2016-09-17T10:38:31.241Z,1004.22
2016-09-17T10:39:31.822Z,1004.25
2016-09-17T10:40:31.249Z,1004.22
2016-09-17T10:41:31.361Z,1004.21
2016-09-17T10:42:31.436Z,1004.25
2016-09-17T10:43:31.149Z,1004.26
2016-09-17T10:44:31.398Z,1004.26
2016-09-17T10:45:31.437Z,1004.29
2016-09-17T10:46:31.502Z,1004.28
2016-09-17T10:47:31.604Z,1004.26
2016-09-17T10:48:31.712Z,1004.28
2016-09-17T10:49:31.381Z,1004.3
2016-09-17T10:50:32.347Z,1004.31
2016-09-17T10:51:32.204Z,1004.32
2016-09-17T10:52:31.439Z,1004.31
2016-09-17T10:53:31.816Z,1004.4
2016-09-17T10:54:31.334Z,1004.4
2016-09-17T10:55:32.094Z,1004.36
2016-09-17T10:56:31.424Z,1004.37
2016-09-17T10:57:31.522Z,1004.37
2016-09-17T10:58:32.385Z,1004.3
2016-09-17T10:59:31.899Z,1004.32
2016-09-17T11:00:31.538Z,1004.26
2016-09-17T11:01:32.126Z,1004.28
2016-09-17T11:02:32.148Z,1004.26
2016-09-17T11:03:31.920Z,1004.27
2016-09-17T11:04:32.797Z,1004.24
2016-09-17T11:05:32.082Z,1004.22
2016-09-17T11:06:31.793Z,1004.18
2016-09-17T11:07:32.180Z,1004.19
2016-09-17T11:08:31.973Z,1004.15
2016-09-17T11:09:32.393Z,1004.2
2016-09-17T11:10:32.837Z,1004.17
2016-09-17T11:11:32.690Z,1004.16
2016-09-17T11:12:32.231Z,1004.22
2016-09-17T11:13:31.897Z,1004.21
2016-09-17T11:14:31.986Z,1004.26
2016-09-17T11:15:32.649Z,1004.25
2016-09-17T11:16:32.235Z,1004.18
2016-09-17T11:17:32.090Z,1004.14
2016-09-17T11:18:32.339Z,1004.16
2016-09-17T11:19:32.518Z,1004.23
2016-09-17T11:20:32.476Z,1004.22
2016-09-17T11:21:33.017Z,1004.21
2016-09-17T11:22:32.296Z,1004.28
2016-09-17T11:23:32.831Z,1004.27
2016-09-17T11:24:32.542Z,1004.3
2016-09-17T11:25:33.304Z,1004.29
2016-09-17T11:26:32.996Z,1004.27
2016-09-17T11:27:33.022Z,1004.27
2016-09-17T11:28:32.124Z,1004.34
2016-09-17T11:29:32.210Z,1004.31
2016-09-17T11:30:32.674Z,1004.31
2016-09-17T11:31:32.346Z,1004.31
2016-09-17T11:32:32.451Z,1004.27
2016-09-17T11:33:32.533Z,1004.27
2016-09-17T11:34:32.599Z,1004.28
2016-09-17T11:35:32.778Z,1004.21
2016-09-17T11:36:32.836Z,1004.18
2016-09-17T11:37:32.421Z,1004.21
2016-09-17T11:38:32.763Z,1004.21
2016-09-17T11:39:32.432Z,1004.22
2016-09-17T11:40:33.459Z,1004.17
2016-09-17T11:41:32.787Z,1004.2
2016-09-17T11:42:33.140Z,1004.21
2016-09-17T11:43:32.839Z,1004.17
2016-09-17T11:44:32.846Z,1004.2
2016-09-17T11:45:32.951Z,1004.23
2016-09-17T11:46:32.888Z,1004.16
2016-09-17T11:47:32.724Z,1004.12
2016-09-17T11:48:33.106Z,1004.14
2016-09-17T11:49:33.753Z,1004.13
2016-09-17T11:50:33.161Z,1004.1
2016-09-17T11:51:32.685Z,1004.11
2016-09-17T11:52:32.889Z,1004.17
2016-09-17T11:53:32.668Z,1004.14
2016-09-17T11:54:32.726Z,1004.15
2016-09-17T11:55:33.227Z,1004.12
2016-09-17T11:56:33.456Z,1004.13
2016-09-17T11:57:32.707Z,1004.15
2016-09-17T11:58:33.209Z,1004.12
2016-09-17T11:59:33.315Z,1004.12
2016-09-17T12:00:33.408Z,1004.09
2016-09-17T12:01:33.834Z,1004.04
2016-09-17T12:02:33.052Z,1004.02
2016-09-17T12:03:33.360Z,1004.03
2016-09-17T12:04:32.929Z,1004.05
2016-09-17T12:05:33.117Z,1004.05
2016-09-17T12:06:34.307Z,1004.02
2016-09-17T12:07:33.443Z,1003.99
2016-09-17T12:08:33.450Z,1004
2016-09-17T12:09:33.490Z,1003.98
2016-09-17T12:10:33.478Z,1004.01